createdAt,value
2023-01-31T00:02:03.436Z,3.13
2023-01-31T00:04:30.499Z,3.83
2023-01-31T00:06:57.596Z,3.95
2023-01-31T00:09:24.669Z,3.45
2023-01-31T00:11:53.783Z,3.28
2023-01-31T00:14:21.218Z,4.03
2023-01-31T00:16:48.461Z,2.30
2023-01-31T00:19:15.530Z,3.45
2023-01-31T00:21:43.967Z,3.08
2023-01-31T00:24:13.919Z,4.20
2023-01-31T00:26:43.888Z,3.83
2023-01-31T00:29:11.112Z,2.58
2023-01-31T00:31:39.113Z,2.22
2023-01-31T00:34:07.090Z,4.25
2023-01-31T00:36:34.980Z,4.90
2023-01-31T00:39:04.396Z,2.72
2023-01-31T00:41:32.737Z,4.45
2023-01-31T00:44:02.559Z,3.42
2023-01-31T00:46:29.978Z,4.50
2023-01-31T00:48:57.301Z,4.60
2023-01-31T00:51:26.787Z,4.47
2023-01-31T00:53:54.586Z,3.70
2023-01-31T00:56:23.687Z,2.97
2023-01-31T00:58:51.872Z,2.03
2023-01-31T01:01:26.313Z,3.03
2023-01-31T01:04:01.232Z,3.67
2023-01-31T01:06:29.539Z,3.60
2023-01-31T01:08:59.866Z,2.97
2023-01-31T01:11:29.692Z,2.70
2023-01-31T01:13:57.641Z,4.28
2023-01-31T01:16:29.913Z,3.58
2023-01-31T01:18:56.983Z,2.72
2023-01-31T01:21:29.971Z,3.17
2023-01-31T01:24:01.783Z,3.92
2023-01-31T01:26:32.078Z,3.78
2023-01-31T01:29:00.668Z,3.75
2023-01-31T01:31:30.630Z,4.30
2023-01-31T01:34:12.069Z,4.53
2023-01-31T01:36:39.890Z,4.63
2023-01-31T01:39:09.884Z,4.13
2023-01-31T01:41:38.358Z,4.82
2023-01-31T01:44:43.554Z,3.60
2023-01-31T01:47:15.676Z,4.53
2023-01-31T01:49:43.224Z,4.70
2023-01-31T01:52:12.169Z,5.07
2023-01-31T01:55:09.175Z,3.75
2023-01-31T01:57:47.866Z,4.40
2023-01-31T02:00:24.622Z,4.03
2023-01-31T02:02:55.345Z,4.95
2023-01-31T02:05:36.831Z,4.47
2023-01-31T02:08:04.411Z,3.60
2023-01-31T02:10:56.724Z,4.18
2023-01-31T02:13:27.204Z,4.13
2023-01-31T02:15:55.332Z,5.07
2023-01-31T02:18:24.570Z,4.78
2023-01-31T02:20:54.731Z,5.47
2023-01-31T02:23:59.171Z,5.30
2023-01-31T02:26:26.175Z,4.30
2023-01-31T02:29:14.396Z,4.57
2023-01-31T02:32:00.149Z,5.53
2023-01-31T02:34:58.963Z,4.80
2023-01-31T02:37:54.332Z,4.95
2023-01-31T02:40:39.321Z,4.50
2023-01-31T02:43:19.603Z,3.53
2023-01-31T02:46:17.099Z,4.65
2023-01-31T02:48:53.420Z,3.75
2023-01-31T02:51:31.367Z,4.78
2023-01-31T02:54:23.660Z,4.28
2023-01-31T02:56:52.604Z,4.65
2023-01-31T02:59:27.025Z,3.35
2023-01-31T03:02:02.165Z,4.90
2023-01-31T03:04:36.831Z,4.03
2023-01-31T03:07:28.262Z,4.30
2023-01-31T03:10:13.736Z,5.20
2023-01-31T03:12:48.924Z,5.07
2023-01-31T03:16:01.498Z,4.05
2023-01-31T03:18:55.365Z,3.28
2023-01-31T03:21:37.318Z,5.28
2023-01-31T03:24:06.434Z,4.72
2023-01-31T03:26:35.059Z,5.55
2023-01-31T03:29:05.237Z,5.85
2023-01-31T03:32:03.463Z,3.63
2023-01-31T03:34:31.058Z,5.53
2023-01-31T03:37:19.201Z,3.15
2023-01-31T03:39:59.224Z,4.07
2023-01-31T03:42:48.848Z,4.35
2023-01-31T03:45:39.116Z,6.28
2023-01-31T03:48:14.488Z,4.78
2023-01-31T03:50:49.611Z,3.33
2023-01-31T03:53:36.544Z,5.78
2023-01-31T03:56:28.696Z,2.80
2023-01-31T03:59:03.813Z,4.75
2023-01-31T04:01:35.162Z,4.20
2023-01-31T04:04:08.679Z,4.22
2023-01-31T04:06:35.826Z,5.55
2023-01-31T04:09:05.467Z,5.13
2023-01-31T04:11:40.672Z,4.25
2023-01-31T04:14:08.996Z,4.93
2023-01-31T04:16:36.743Z,4.55
2023-01-31T04:19:04.035Z,4.60
2023-01-31T04:21:31.179Z,5.70
2023-01-31T04:23:58.309Z,6.25
2023-01-31T04:26:25.819Z,6.43
2023-01-31T04:28:52.943Z,3.55
2023-01-31T04:31:20.087Z,5.82
2023-01-31T04:33:47.386Z,5.65
2023-01-31T04:36:14.492Z,4.60
2023-01-31T04:38:41.604Z,4.13
2023-01-31T04:41:08.650Z,5.03
2023-01-31T04:43:36.788Z,4.97
2023-01-31T04:46:03.938Z,6.10
2023-01-31T04:48:31.786Z,3.30
2023-01-31T04:50:58.870Z,4.75
2023-01-31T04:53:26.148Z,6.03
2023-01-31T04:55:56.517Z,6.65
2023-01-31T04:58:26.299Z,6.45
2023-01-31T05:00:56.895Z,5.82
2023-01-31T05:03:24.242Z,5.20
2023-01-31T05:05:53.544Z,5.82
2023-01-31T05:08:20.636Z,6.65
2023-01-31T05:10:48.687Z,5.63
2023-01-31T05:13:15.809Z,6.07
2023-01-31T05:15:42.890Z,6.53
2023-01-31T05:18:11.694Z,7.43
2023-01-31T05:20:41.019Z,5.28
2023-01-31T05:23:08.671Z,5.03
2023-01-31T05:25:39.815Z,5.45
2023-01-31T05:28:06.935Z,5.47
2023-01-31T05:30:34.282Z,5.78
2023-01-31T05:33:03.811Z,6.15
2023-01-31T05:35:31.271Z,4.85
2023-01-31T05:38:06.322Z,4.55
2023-01-31T05:40:33.729Z,6.50
2023-01-31T05:43:01.824Z,3.42
2023-01-31T05:45:30.120Z,4.25
2023-01-31T05:47:59.174Z,6.32
2023-01-31T05:50:26.449Z,7.20
2023-01-31T05:52:55.888Z,5.38
2023-01-31T05:55:23.316Z,5.45
2023-01-31T05:57:50.627Z,4.53
2023-01-31T06:00:18.014Z,6.40
2023-01-31T06:02:45.115Z,6.25
2023-01-31T06:05:14.669Z,6.45
2023-01-31T06:07:44.577Z,5.85
2023-01-31T06:10:13.883Z,5.68
2023-01-31T06:12:42.960Z,6.07
2023-01-31T06:15:10.415Z,6.28
2023-01-31T06:17:37.459Z,5.63
2023-01-31T06:20:05.453Z,6.15
2023-01-31T06:22:32.923Z,5.70
2023-01-31T06:25:00.106Z,5.22
2023-01-31T06:27:27.090Z,5.85
2023-01-31T06:29:54.145Z,6.85
2023-01-31T06:32:21.319Z,4.68
2023-01-31T06:34:48.363Z,7.32
2023-01-31T06:37:15.430Z,3.42
2023-01-31T06:39:42.504Z,6.20
2023-01-31T06:42:09.552Z,7.63
2023-01-31T06:44:45.148Z,7.00
2023-01-31T06:47:13.169Z,3.97
2023-01-31T06:49:40.269Z,5.35
2023-01-31T06:52:07.345Z,6.78
2023-01-31T06:54:34.643Z,4.78
2023-01-31T06:57:03.837Z,6.32
2023-01-31T06:59:33.751Z,7.05
2023-01-31T07:02:01.026Z,5.65
2023-01-31T07:04:30.755Z,7.38
2023-01-31T07:06:58.584Z,6.93
2023-01-31T07:09:25.755Z,6.00
2023-01-31T07:11:53.444Z,4.95
2023-01-31T07:14:20.892Z,7.22
2023-01-31T07:16:48.178Z,4.25
2023-01-31T07:19:15.420Z,7.03
2023-01-31T07:21:42.507Z,6.25
2023-01-31T07:24:09.808Z,5.65
2023-01-31T07:26:38.123Z,5.35
2023-01-31T07:29:07.552Z,5.72
2023-01-31T07:31:34.891Z,7.65
2023-01-31T07:34:02.768Z,6.45
2023-01-31T07:36:30.004Z,6.40
2023-01-31T07:38:58.291Z,6.65
2023-01-31T07:41:25.981Z,7.38
2023-01-31T07:43:55.251Z,6.72
2023-01-31T07:46:22.412Z,7.32
2023-01-31T07:48:51.046Z,7.30
2023-01-31T07:51:18.084Z,6.78
2023-01-31T07:53:45.261Z,7.72
2023-01-31T07:56:15.457Z,6.00
2023-01-31T07:58:43.892Z,7.13
2023-01-31T08:01:34.070Z,5.07
2023-01-31T08:04:18.393Z,6.50
2023-01-31T08:06:47.627Z,5.18
2023-01-31T08:09:17.951Z,8.05
2023-01-31T08:11:44.979Z,4.38
2023-01-31T08:14:12.113Z,7.40
2023-01-31T08:16:39.920Z,6.93
2023-01-31T08:19:11.973Z,7.45
2023-01-31T08:21:39.115Z,6.18
2023-01-31T08:24:06.524Z,5.97
2023-01-31T08:26:33.590Z,8.07
2023-01-31T08:29:03.292Z,6.63
2023-01-31T08:31:30.576Z,6.82
2023-01-31T08:33:57.910Z,6.97
2023-01-31T08:36:31.911Z,7.30
2023-01-31T08:39:00.068Z,5.65
2023-01-31T08:41:30.521Z,6.10
2023-01-31T08:43:58.932Z,6.78
2023-01-31T08:46:29.740Z,6.47
2023-01-31T08:48:57.590Z,6.28
2023-01-31T08:51:27.103Z,4.85
2023-01-31T08:53:54.386Z,6.88
2023-01-31T08:56:28.154Z,4.13
2023-01-31T08:58:55.893Z,5.80
2023-01-31T09:01:24.891Z,7.50
2023-01-31T09:03:56.972Z,5.75
2023-01-31T09:06:27.148Z,7.35
2023-01-31T09:08:58.688Z,7.25
2023-01-31T09:11:28.937Z,6.97
2023-01-31T09:13:57.272Z,7.18
2023-01-31T09:16:24.398Z,4.90
2023-01-31T09:18:51.857Z,6.28
2023-01-31T09:21:21.037Z,6.32
2023-01-31T09:23:49.211Z,5.35
2023-01-31T09:26:17.071Z,5.97
2023-01-31T09:28:45.525Z,8.07
2023-01-31T09:31:15.531Z,6.40
2023-01-31T09:33:43.308Z,7.72
2023-01-31T09:36:13.211Z,7.20
2023-01-31T09:38:41.209Z,8.18
2023-01-31T09:41:23.918Z,6.88
2023-01-31T09:44:04.796Z,6.68
2023-01-31T09:46:47.671Z,6.95
2023-01-31T09:49:27.478Z,6.50
2023-01-31T09:52:02.148Z,4.85
2023-01-31T09:54:36.623Z,7.55
2023-01-31T09:57:33.886Z,6.32
2023-01-31T10:00:29.160Z,6.55
2023-01-31T10:03:24.121Z,6.78
2023-01-31T10:06:21.450Z,7.55
2023-01-31T10:08:57.573Z,7.57
2023-01-31T10:11:43.241Z,5.47
2023-01-31T10:14:10.323Z,4.82
2023-01-31T10:16:45.995Z,7.07
2023-01-31T10:19:19.843Z,6.18
2023-01-31T10:21:51.786Z,7.03
2023-01-31T10:24:25.170Z,6.80
2023-01-31T10:26:58.413Z,5.63
2023-01-31T10:29:34.324Z,5.82
2023-01-31T10:32:14.618Z,5.65
2023-01-31T10:35:01.008Z,6.32
2023-01-31T10:37:37.438Z,7.10
2023-01-31T10:40:14.162Z,6.70
2023-01-31T10:42:46.146Z,6.93
2023-01-31T10:45:24.110Z,6.35
2023-01-31T10:47:54.105Z,7.40
2023-01-31T10:50:39.327Z,7.93
2023-01-31T10:53:49.886Z,7.93
2023-01-31T10:56:21.218Z,8.20
2023-01-31T10:58:48.524Z,5.38
2023-01-31T11:01:16.020Z,6.93
2023-01-31T11:03:54.003Z,6.68
2023-01-31T11:06:22.388Z,6.75
2023-01-31T11:08:53.568Z,7.63
2023-01-31T11:11:23.703Z,6.22
2023-01-31T11:14:04.067Z,6.60
2023-01-31T11:16:35.729Z,6.05
2023-01-31T11:19:13.393Z,7.72
2023-01-31T11:21:40.743Z,7.72
2023-01-31T11:24:30.979Z,6.93
2023-01-31T11:27:12.529Z,8.00
2023-01-31T11:29:46.033Z,6.75
2023-01-31T11:32:22.787Z,7.00
2023-01-31T11:35:00.288Z,5.38
2023-01-31T11:37:30.404Z,5.80
2023-01-31T11:40:19.875Z,6.82
2023-01-31T11:43:01.311Z,5.32
2023-01-31T11:45:37.871Z,6.60
2023-01-31T11:48:20.178Z,6.95
2023-01-31T11:50:52.210Z,5.70
2023-01-31T11:53:24.046Z,6.03
2023-01-31T11:55:54.615Z,5.18
2023-01-31T11:58:27.595Z,7.07
2023-01-31T12:03:27.562Z,7.63
2023-01-31T12:06:46.967Z,6.43
2023-01-31T12:09:23.549Z,6.53
2023-01-31T12:11:53.636Z,6.03
2023-01-31T12:14:21.162Z,5.32
2023-01-31T12:16:50.268Z,8.15
2023-01-31T12:19:26.047Z,6.65
2023-01-31T12:21:58.960Z,8.32
2023-01-31T12:27:27.860Z,4.45
2023-01-31T12:30:18.071Z,6.22
2023-01-31T12:33:09.099Z,5.13
2023-01-31T12:36:15.973Z,5.10
2023-01-31T12:38:48.568Z,7.22
2023-01-31T12:41:21.930Z,5.47
2023-01-31T12:43:58.176Z,7.05
2023-01-31T12:46:28.506Z,8.32
2023-01-31T12:49:27.640Z,6.57
2023-01-31T12:52:48.438Z,8.02
2023-01-31T12:55:27.349Z,6.65
2023-01-31T12:58:26.231Z,4.57
2023-01-31T13:01:07.898Z,4.82
2023-01-31T13:03:52.744Z,6.13
2023-01-31T13:06:27.914Z,7.13
2023-01-31T13:09:09.465Z,6.85
2023-01-31T13:11:56.766Z,7.75
2023-01-31T13:14:27.923Z,4.32
2023-01-31T13:17:00.151Z,6.68
2023-01-31T13:19:52.673Z,7.22
2023-01-31T13:22:25.955Z,7.70
2023-01-31T13:25:06.681Z,8.52
2023-01-31T13:27:39.260Z,7.75
2023-01-31T13:30:20.113Z,10.75
2023-01-31T13:32:50.330Z,6.60
2023-01-31T13:35:26.493Z,5.60
2023-01-31T13:38:00.001Z,7.60
2023-01-31T13:40:33.010Z,6.18
2023-01-31T13:45:38.932Z,7.63
2023-01-31T13:48:16.460Z,6.95
2023-01-31T13:50:51.476Z,7.18
2023-01-31T13:53:28.195Z,9.15
2023-01-31T13:55:55.647Z,10.60
2023-01-31T13:58:29.943Z,10.50
2023-01-31T14:00:59.441Z,8.85
2023-01-31T14:03:26.900Z,7.32
2023-01-31T14:05:56.110Z,7.70
2023-01-31T14:08:38.752Z,8.00
2023-01-31T14:11:14.829Z,7.38
2023-01-31T14:13:47.182Z,4.50
2023-01-31T14:16:52.843Z,8.05
2023-01-31T14:19:20.268Z,5.72
2023-01-31T14:22:02.524Z,8.45
2023-01-31T14:24:47.561Z,7.03
2023-01-31T14:27:29.515Z,13.65
2023-01-31T14:30:06.040Z,6.68
2023-01-31T14:32:46.841Z,8.07
2023-01-31T14:35:13.901Z,7.60
2023-01-31T14:37:46.990Z,8.68
2023-01-31T14:43:35.077Z,6.07
2023-01-31T14:46:29.741Z,8.13
2023-01-31T14:49:23.114Z,6.70
2023-01-31T14:51:50.243Z,9.20
2023-01-31T14:54:20.572Z,8.52
2023-01-31T14:57:25.009Z,7.40
2023-01-31T15:00:05.924Z,8.45
2023-01-31T15:02:33.774Z,7.22
2023-01-31T15:05:02.115Z,7.88
2023-01-31T15:07:31.134Z,7.78
2023-01-31T15:09:58.952Z,9.70
2023-01-31T15:13:00.766Z,7.78
2023-01-31T15:15:39.990Z,9.75
2023-01-31T15:18:26.552Z,7.95
2023-01-31T15:20:59.113Z,6.38
2023-01-31T15:23:29.596Z,7.10
2023-01-31T15:25:58.900Z,10.02
2023-01-31T15:28:30.256Z,9.50
2023-01-31T15:31:01.117Z,9.57
2023-01-31T15:33:43.780Z,7.13
2023-01-31T15:36:39.064Z,9.80
2023-01-31T15:39:30.681Z,5.90
2023-01-31T15:41:57.823Z,9.00
2023-01-31T15:44:29.569Z,9.80
2023-01-31T15:47:03.681Z,7.70
2023-01-31T15:49:41.158Z,6.38
2023-01-31T15:52:08.226Z,7.97
2023-01-31T15:54:35.705Z,9.80
2023-01-31T15:57:04.025Z,9.35
2023-01-31T15:59:33.840Z,6.47
2023-01-31T16:02:02.253Z,10.13
2023-01-31T16:04:30.176Z,7.55
2023-01-31T16:06:58.989Z,12.20
2023-01-31T16:09:34.959Z,15.70
2023-01-31T16:12:02.853Z,10.02
2023-01-31T16:14:30.836Z,7.93
2023-01-31T16:16:59.391Z,7.45
2023-01-31T16:19:32.978Z,9.23
2023-01-31T16:22:00.602Z,9.90
2023-01-31T16:24:27.853Z,8.10
2023-01-31T16:27:13.972Z,9.27
2023-01-31T16:29:50.741Z,9.60
2023-01-31T16:32:27.645Z,9.73
2023-01-31T16:35:07.188Z,10.00
2023-01-31T16:37:41.734Z,10.73
2023-01-31T16:40:09.261Z,11.95
2023-01-31T16:42:38.922Z,9.73
2023-01-31T16:45:30.491Z,10.23
2023-01-31T16:48:24.996Z,9.82
2023-01-31T16:50:54.165Z,10.88
2023-01-31T16:53:28.781Z,11.35
2023-01-31T16:56:14.312Z,8.88
2023-01-31T16:58:58.432Z,9.98
2023-01-31T17:01:35.000Z,10.40
2023-01-31T17:04:14.076Z,10.80
2023-01-31T17:06:42.973Z,10.32
2023-01-31T17:09:16.266Z,11.68
2023-01-31T17:14:30.154Z,7.45
2023-01-31T17:16:57.303Z,8.88
2023-01-31T17:19:24.569Z,10.15
2023-01-31T17:21:52.209Z,9.52
2023-01-31T17:24:22.716Z,9.80
2023-01-31T17:26:52.012Z,9.25
2023-01-31T17:29:20.774Z,10.23
2023-01-31T17:31:47.953Z,12.07
2023-01-31T17:34:16.496Z,11.68
2023-01-31T17:36:46.674Z,5.63
2023-01-31T17:39:13.725Z,10.13
2023-01-31T17:41:41.591Z,7.38
2023-01-31T17:44:13.133Z,5.93
2023-01-31T17:46:40.500Z,10.35
2023-01-31T17:49:07.603Z,7.53
2023-01-31T17:51:34.705Z,6.05
2023-01-31T17:54:01.819Z,7.43
2023-01-31T17:56:29.043Z,8.73
2023-01-31T17:58:56.444Z,9.68
2023-01-31T18:01:23.802Z,11.07
2023-01-31T18:03:51.417Z,10.45
2023-01-31T18:06:18.946Z,9.07
2023-01-31T18:08:46.195Z,8.23
2023-01-31T18:11:15.457Z,10.48
2023-01-31T18:13:43.468Z,10.65
2023-01-31T18:16:18.250Z,10.02
2023-01-31T18:18:45.540Z,7.70
2023-01-31T18:21:15.547Z,14.55
2023-01-31T18:23:42.854Z,10.60
2023-01-31T18:26:11.683Z,6.45
2023-01-31T18:28:38.784Z,9.18
2023-01-31T18:31:10.808Z,7.15
2023-01-31T18:33:38.265Z,6.25
2023-01-31T18:36:06.135Z,6.88
2023-01-31T18:38:33.666Z,6.95
2023-01-31T18:41:01.342Z,7.53
2023-01-31T18:43:30.072Z,8.75
2023-01-31T18:45:57.122Z,8.70
2023-01-31T18:48:24.683Z,13.77
2023-01-31T18:50:51.804Z,6.53
2023-01-31T18:53:18.849Z,6.38
2023-01-31T18:55:46.206Z,9.63
2023-01-31T18:58:13.420Z,7.60
2023-01-31T19:00:40.931Z,11.23
2023-01-31T19:03:08.017Z,7.55
2023-01-31T19:05:37.499Z,10.38
2023-01-31T19:08:04.887Z,8.93
2023-01-31T19:10:32.968Z,8.18
2023-01-31T19:13:00.037Z,8.50
2023-01-31T19:15:27.148Z,8.05
2023-01-31T19:17:54.510Z,9.35
2023-01-31T19:20:21.558Z,9.88
2023-01-31T19:22:48.741Z,9.43
2023-01-31T19:25:15.913Z,8.25
2023-01-31T19:27:42.924Z,9.63
2023-01-31T19:30:10.817Z,9.35
2023-01-31T19:32:37.992Z,10.18
2023-01-31T19:35:05.602Z,7.35
2023-01-31T19:37:32.740Z,7.82
2023-01-31T19:40:00.183Z,8.00
2023-01-31T19:42:28.209Z,6.18
2023-01-31T19:44:55.335Z,8.57
2023-01-31T19:47:25.077Z,5.55
2023-01-31T19:49:52.447Z,7.03
2023-01-31T19:52:19.496Z,6.90
2023-01-31T19:54:46.567Z,8.00
2023-01-31T19:57:13.675Z,8.52
2023-01-31T19:59:41.329Z,9.50
2023-01-31T20:02:11.988Z,8.73
2023-01-31T20:04:39.213Z,8.10
2023-01-31T20:07:06.351Z,9.45
2023-01-31T20:09:33.763Z,7.88
2023-01-31T20:12:00.809Z,11.95
2023-01-31T20:14:29.630Z,7.90
2023-01-31T20:16:56.715Z,6.70
2023-01-31T20:19:23.915Z,8.57
2023-01-31T20:21:51.214Z,9.20
2023-01-31T20:24:18.409Z,9.85
2023-01-31T20:26:45.474Z,7.50
2023-01-31T20:29:12.551Z,9.38
2023-01-31T20:31:39.632Z,9.75
2023-01-31T20:34:07.197Z,8.77
2023-01-31T20:36:34.240Z,5.15
2023-01-31T20:39:01.318Z,9.13
2023-01-31T20:41:29.783Z,7.47
2023-01-31T20:43:57.962Z,10.43
2023-01-31T20:46:25.070Z,10.77
2023-01-31T20:48:53.002Z,10.98
2023-01-31T20:51:20.057Z,7.57
2023-01-31T20:53:47.445Z,8.00
2023-01-31T20:56:14.705Z,7.85
2023-01-31T20:58:43.257Z,6.65
2023-01-31T21:01:11.733Z,8.90
2023-01-31T21:03:39.028Z,6.88
2023-01-31T21:06:07.228Z,8.68
2023-01-31T21:08:35.760Z,6.80
2023-01-31T21:11:07.378Z,6.57
2023-01-31T21:13:35.245Z,10.63
2023-01-31T21:16:05.042Z,9.93
2023-01-31T21:18:35.804Z,5.50
2023-01-31T21:21:09.228Z,6.35
2023-01-31T21:23:37.968Z,8.70
2023-01-31T21:26:07.581Z,9.52
2023-01-31T21:28:37.681Z,7.50
2023-01-31T21:31:08.844Z,9.43
2023-01-31T21:33:36.549Z,8.13
2023-01-31T21:36:08.795Z,9.85
2023-01-31T21:38:36.462Z,8.32
2023-01-31T21:41:22.329Z,7.95
2023-01-31T21:43:49.576Z,7.55
2023-01-31T21:46:19.719Z,8.32
2023-01-31T21:48:46.969Z,8.02
2023-01-31T21:51:16.147Z,8.82
2023-01-31T21:53:43.875Z,10.38
2023-01-31T21:56:20.118Z,9.70
2023-01-31T21:58:49.430Z,9.07
2023-01-31T22:01:20.374Z,10.45
2023-01-31T22:03:49.917Z,10.80
2023-01-31T22:06:19.563Z,8.73
2023-01-31T22:08:54.387Z,9.10
2023-01-31T22:11:22.350Z,9.90
2023-01-31T22:13:53.144Z,9.30
2023-01-31T22:16:22.473Z,12.13
2023-01-31T22:18:49.629Z,9.68
2023-01-31T22:21:29.443Z,10.95
2023-01-31T22:23:59.422Z,11.45
2023-01-31T22:26:29.091Z,11.30
2023-01-31T22:29:01.098Z,11.40
2023-01-31T22:31:29.516Z,12.60
2023-01-31T22:33:59.248Z,11.38
2023-01-31T22:36:26.980Z,10.32
2023-01-31T22:38:54.790Z,9.80
2023-01-31T22:41:22.413Z,10.52
2023-01-31T22:43:51.872Z,13.82
2023-01-31T22:46:24.447Z,11.35
2023-01-31T22:48:55.118Z,9.05
2023-01-31T22:51:24.386Z,12.95
2023-01-31T22:53:52.027Z,11.82
2023-01-31T22:56:21.817Z,13.18
2023-01-31T22:58:49.386Z,11.82
2023-01-31T23:01:21.954Z,11.10
2023-01-31T23:03:49.719Z,10.27
2023-01-31T23:06:19.022Z,9.63
2023-01-31T23:08:46.602Z,10.02
2023-01-31T23:11:16.262Z,11.23
2023-01-31T23:13:43.965Z,10.13
2023-01-31T23:16:42.618Z,11.60
2023-01-31T23:19:10.345Z,11.85
2023-01-31T23:21:42.698Z,9.30
2023-01-31T23:24:11.257Z,12.30
2023-01-31T23:26:38.777Z,10.57
2023-01-31T23:29:06.067Z,8.48
2023-01-31T23:31:35.567Z,11.98
2023-01-31T23:34:02.668Z,11.77
2023-01-31T23:36:29.694Z,12.18
2023-01-31T23:38:59.057Z,12.77
2023-01-31T23:41:26.252Z,11.75
2023-01-31T23:43:53.302Z,10.10
2023-01-31T23:46:20.429Z,10.95
2023-01-31T23:48:47.533Z,7.88
2023-01-31T23:51:17.111Z,13.27
2023-01-31T23:53:46.605Z,13.43
2023-01-31T23:56:13.660Z,11.55
2023-01-31T23:58:43.266Z,14.20
